createdAt,value
2023-02-06T00:00:52.068Z,100422.00
2023-02-06T00:03:20.227Z,100421.16
2023-02-06T00:06:07.357Z,100432.44
2023-02-06T00:08:34.740Z,100430.56
2023-02-06T00:11:08.777Z,100438.25
2023-02-06T00:13:36.924Z,100442.47
2023-02-06T00:16:04.657Z,100434.47
2023-02-06T00:18:31.910Z,100440.25
2023-02-06T00:20:58.458Z,100433.28
2023-02-06T00:23:25.179Z,100444.31
2023-02-06T00:25:51.888Z,100449.34
2023-02-06T00:28:18.743Z,100435.34
2023-02-06T00:30:48.535Z,100437.69
2023-02-06T00:33:15.391Z,100441.50
2023-02-06T00:35:42.166Z,100441.34
2023-02-06T00:38:10.848Z,100442.91
2023-02-06T00:40:38.374Z,100445.47
2023-02-06T00:43:05.564Z,100447.19
2023-02-06T00:45:32.194Z,100454.13
2023-02-06T00:47:58.991Z,100452.38
2023-02-06T00:50:25.795Z,100456.81
2023-02-06T00:52:52.539Z,100463.00
2023-02-06T00:55:19.233Z,100459.59
2023-02-06T00:57:45.949Z,100461.56
2023-02-06T01:00:14.616Z,100459.06
2023-02-06T01:02:41.687Z,100461.72
2023-02-06T01:05:08.439Z,100467.50
2023-02-06T01:07:39.048Z,100469.88
2023-02-06T01:10:07.978Z,100460.41
2023-02-06T01:12:36.769Z,100465.56
2023-02-06T01:15:09.671Z,100466.44
2023-02-06T01:17:38.787Z,100465.59
2023-02-06T01:20:08.829Z,100477.38
2023-02-06T01:22:36.177Z,100468.72
2023-02-06T01:25:03.283Z,100469.56
2023-02-06T01:27:31.679Z,100476.41
2023-02-06T01:29:58.383Z,100468.53
2023-02-06T01:32:25.173Z,100479.19
2023-02-06T01:34:51.873Z,100467.13
2023-02-06T01:37:18.635Z,100471.09
2023-02-06T01:39:45.299Z,100475.41
2023-02-06T01:42:13.070Z,100470.41
2023-02-06T01:44:39.847Z,100477.44
2023-02-06T01:47:06.648Z,100477.63
2023-02-06T01:49:44.407Z,100481.63
2023-02-06T01:52:23.363Z,100488.22
2023-02-06T01:54:55.281Z,100479.53
2023-02-06T01:57:24.179Z,100481.84
2023-02-06T01:59:56.781Z,100485.09
2023-02-06T02:02:26.152Z,100486.66
2023-02-06T02:04:53.663Z,100488.38
2023-02-06T02:07:24.838Z,100482.38
2023-02-06T02:09:52.411Z,100482.28
2023-02-06T02:12:19.192Z,100483.13
2023-02-06T02:14:48.051Z,100488.28
2023-02-06T02:17:17.622Z,100475.47
2023-02-06T02:19:50.440Z,100482.16
2023-02-06T02:22:26.233Z,100482.84
2023-02-06T02:25:08.132Z,100478.38
2023-02-06T02:28:05.732Z,100479.31
2023-02-06T02:30:41.580Z,100474.94
2023-02-06T02:33:26.401Z,100480.50
2023-02-06T02:36:17.808Z,100486.22
2023-02-06T02:38:58.275Z,100487.84
2023-02-06T02:41:53.155Z,100478.41
2023-02-06T02:45:02.391Z,100489.53
2023-02-06T02:47:34.901Z,100484.53
2023-02-06T02:50:03.537Z,100482.41
2023-02-06T02:52:30.274Z,100479.63
2023-02-06T02:54:57.000Z,100481.38
2023-02-06T02:57:30.887Z,100479.66
2023-02-06T03:00:00.784Z,100474.38
2023-02-06T03:02:38.181Z,100478.53
2023-02-06T03:05:14.827Z,100480.09
2023-02-06T03:08:01.630Z,100485.06
2023-02-06T03:10:57.392Z,100482.31
2023-02-06T03:13:32.446Z,100485.66
2023-02-06T03:16:05.410Z,100484.78
2023-02-06T03:18:43.598Z,100487.91
2023-02-06T03:21:13.719Z,100499.00
2023-02-06T03:23:43.782Z,100492.97
2023-02-06T03:26:15.008Z,100503.13
2023-02-06T03:28:49.867Z,100496.97
2023-02-06T03:31:24.734Z,100493.59
2023-02-06T03:34:19.925Z,100502.34
2023-02-06T03:36:47.836Z,100490.41
2023-02-06T03:39:14.707Z,100493.81
2023-02-06T03:41:43.880Z,100500.59
2023-02-06T03:44:15.624Z,100483.22
2023-02-06T03:46:44.345Z,100495.34
2023-02-06T03:49:14.318Z,100496.19
2023-02-06T03:51:51.638Z,100500.41
2023-02-06T03:54:22.853Z,100491.53
2023-02-06T03:57:02.233Z,100496.69
2023-02-06T03:59:30.491Z,100508.16
2023-02-06T04:01:59.697Z,100494.41
2023-02-06T04:04:31.353Z,100508.28
2023-02-06T04:07:01.651Z,100504.81
2023-02-06T04:09:28.637Z,100508.03
2023-02-06T04:11:55.416Z,100512.28
2023-02-06T04:14:22.110Z,100516.59
2023-02-06T04:16:48.925Z,100514.66
2023-02-06T04:19:15.692Z,100506.00
2023-02-06T04:21:42.493Z,100502.66
2023-02-06T04:24:09.227Z,100500.19
2023-02-06T04:26:36.006Z,100494.94
2023-02-06T04:29:02.836Z,100508.00
2023-02-06T04:31:29.971Z,100512.31
2023-02-06T04:33:56.560Z,100514.84
2023-02-06T04:36:23.240Z,100503.50
2023-02-06T04:38:50.763Z,100517.13
2023-02-06T04:41:17.494Z,100508.25
2023-02-06T04:43:44.226Z,100513.53
2023-02-06T04:46:11.049Z,100514.47
2023-02-06T04:48:37.914Z,100522.31
2023-02-06T04:51:04.911Z,100518.78
2023-02-06T04:53:31.645Z,100507.59
2023-02-06T04:56:11.502Z,100519.75
2023-02-06T04:58:56.615Z,100521.34
2023-02-06T05:01:23.591Z,100519.41
2023-02-06T05:03:50.377Z,100517.47
2023-02-06T05:06:18.104Z,100514.81
2023-02-06T05:08:44.762Z,100514.13
2023-02-06T05:11:11.661Z,100510.84
2023-02-06T05:13:38.459Z,100509.28
2023-02-06T05:16:10.033Z,100515.25
2023-02-06T05:18:37.387Z,100519.28
2023-02-06T05:21:04.791Z,100514.94
2023-02-06T05:23:32.589Z,100514.56
2023-02-06T05:26:00.427Z,100511.38
2023-02-06T05:28:29.713Z,100509.03
2023-02-06T05:30:57.298Z,100509.97
2023-02-06T05:33:24.544Z,100512.53
2023-02-06T05:35:51.267Z,100502.13
2023-02-06T05:38:18.066Z,100509.91
2023-02-06T05:40:45.006Z,100522.06
2023-02-06T05:43:12.068Z,100519.59
2023-02-06T05:45:39.354Z,100517.09
2023-02-06T05:48:06.502Z,100514.63
2023-02-06T05:50:33.255Z,100514.63
2023-02-06T05:52:59.975Z,100514.69
2023-02-06T05:55:26.931Z,100507.09
2023-02-06T05:57:53.935Z,100513.97
2023-02-06T06:00:21.164Z,100507.19
2023-02-06T06:02:47.962Z,100514.25
2023-02-06T06:05:14.675Z,100510.94
2023-02-06T06:07:41.432Z,100521.13
2023-02-06T06:10:08.638Z,100509.94
2023-02-06T06:12:35.224Z,100512.63
2023-02-06T06:15:01.977Z,100505.00
2023-02-06T06:17:28.806Z,100504.72
2023-02-06T06:19:55.511Z,100502.31
2023-02-06T06:22:22.263Z,100506.75
2023-02-06T06:24:49.012Z,100505.97
2023-02-06T06:27:15.712Z,100500.06
2023-02-06T06:29:42.465Z,100504.44
2023-02-06T06:32:09.128Z,100501.88
2023-02-06T06:34:35.942Z,100509.91
2023-02-06T06:37:02.689Z,100493.59
2023-02-06T06:39:29.431Z,100501.56
2023-02-06T06:41:56.113Z,100493.88
2023-02-06T06:44:22.915Z,100500.00
2023-02-06T06:46:49.625Z,100503.56
2023-02-06T06:49:16.354Z,100500.31
2023-02-06T06:51:43.091Z,100503.06
2023-02-06T06:54:10.006Z,100489.34
2023-02-06T06:56:36.804Z,100512.06
2023-02-06T06:59:03.509Z,100512.41
2023-02-06T07:01:30.212Z,100510.19
2023-02-06T07:03:59.135Z,100518.22
2023-02-06T07:06:25.883Z,100505.56
2023-02-06T07:08:53.021Z,100511.78
2023-02-06T07:11:19.815Z,100503.44
2023-02-06T07:13:46.785Z,100510.56
2023-02-06T07:16:13.616Z,100509.91
2023-02-06T07:18:41.341Z,100509.19
2023-02-06T07:21:08.963Z,100507.66
2023-02-06T07:23:38.994Z,100511.19
2023-02-06T07:26:05.751Z,100518.38
2023-02-06T07:28:33.294Z,100516.81
2023-02-06T07:31:05.180Z,100523.84
2023-02-06T07:33:32.394Z,100517.19
2023-02-06T07:35:58.952Z,100520.91
2023-02-06T07:38:25.681Z,100516.81
2023-02-06T07:40:52.489Z,100517.91
2023-02-06T07:43:19.297Z,100528.47
2023-02-06T07:45:46.112Z,100502.50
2023-02-06T07:48:12.853Z,100512.34
2023-02-06T07:50:39.593Z,100507.56
2023-02-06T07:53:07.854Z,100506.13
2023-02-06T07:55:36.859Z,100518.19
2023-02-06T07:58:04.195Z,100518.47
2023-02-06T08:00:30.746Z,100518.91
2023-02-06T08:02:57.523Z,100516.91
2023-02-06T08:05:24.248Z,100520.88
2023-02-06T08:07:52.164Z,100508.13
2023-02-06T08:10:18.880Z,100517.69
2023-02-06T08:12:45.654Z,100519.84
2023-02-06T08:15:12.842Z,100517.84
2023-02-06T08:17:39.512Z,100519.22
2023-02-06T08:20:07.996Z,100514.69
2023-02-06T08:22:34.974Z,100521.28
2023-02-06T08:25:01.739Z,100529.88
2023-02-06T08:27:28.803Z,100514.03
2023-02-06T08:29:57.239Z,100529.94
2023-02-06T08:32:23.929Z,100524.09
2023-02-06T08:34:50.668Z,100535.72
2023-02-06T08:37:17.469Z,100530.53
2023-02-06T08:39:44.199Z,100529.72
2023-02-06T08:42:10.913Z,100532.59
2023-02-06T08:44:37.623Z,100536.66
2023-02-06T08:47:10.032Z,100535.63
2023-02-06T08:49:37.638Z,100525.56
2023-02-06T08:52:04.322Z,100530.53
2023-02-06T08:54:32.642Z,100527.66
2023-02-06T08:57:02.613Z,100524.69
2023-02-06T08:59:29.598Z,100523.22
2023-02-06T09:01:56.377Z,100531.97
2023-02-06T09:04:23.063Z,100537.03
2023-02-06T09:06:50.196Z,100535.03
2023-02-06T09:09:16.998Z,100526.00
2023-02-06T09:11:44.348Z,100525.78
2023-02-06T09:14:15.372Z,100532.97
2023-02-06T09:16:42.188Z,100531.63
2023-02-06T09:19:10.863Z,100542.41
2023-02-06T09:21:37.936Z,100535.06
2023-02-06T09:24:07.553Z,100534.72
2023-02-06T09:26:53.372Z,100539.09
2023-02-06T09:29:24.302Z,100546.41
2023-02-06T09:31:51.060Z,100551.34
2023-02-06T09:34:17.799Z,100551.34
2023-02-06T09:36:44.863Z,100552.41
2023-02-06T09:39:11.585Z,100551.97
2023-02-06T09:42:03.097Z,100555.38
2023-02-06T09:44:46.236Z,100555.06
2023-02-06T09:47:33.442Z,100559.22
2023-02-06T09:50:19.557Z,100553.31
2023-02-06T09:52:58.228Z,100549.91
2023-02-06T09:55:42.835Z,100548.78
2023-02-06T09:58:54.871Z,100550.06
2023-02-06T10:01:37.519Z,100550.38
2023-02-06T10:04:17.403Z,100536.44
2023-02-06T10:06:56.179Z,100539.63
2023-02-06T10:09:46.642Z,100534.50
2023-02-06T10:12:19.609Z,100526.28
2023-02-06T10:14:54.638Z,100522.13
2023-02-06T10:17:34.165Z,100516.75
2023-02-06T10:20:12.031Z,100516.28
2023-02-06T10:22:38.589Z,100519.97
2023-02-06T10:25:11.032Z,100511.38
2023-02-06T10:27:41.693Z,100508.75
2023-02-06T10:30:18.063Z,100507.91
2023-02-06T10:33:05.347Z,100503.22
2023-02-06T10:35:42.394Z,100495.50
2023-02-06T10:38:26.697Z,100488.53
2023-02-06T10:41:03.781Z,100475.25
2023-02-06T10:43:45.586Z,100478.53
2023-02-06T10:46:36.722Z,100461.50
2023-02-06T10:49:17.883Z,100446.09
2023-02-06T10:51:49.195Z,100464.56
2023-02-06T10:54:21.936Z,100458.13
2023-02-06T10:56:50.538Z,100458.06
2023-02-06T10:59:40.359Z,100450.50
2023-02-06T11:03:05.381Z,100448.00
2023-02-06T11:05:35.234Z,100428.59
2023-02-06T11:08:22.810Z,100435.50
2023-02-06T11:10:49.934Z,100423.41
2023-02-06T11:13:29.822Z,100424.34
2023-02-06T11:16:08.278Z,100425.75
2023-02-06T11:18:39.413Z,100413.84
2023-02-06T11:21:08.308Z,100420.94
2023-02-06T11:23:35.655Z,100416.81
2023-02-06T11:26:10.536Z,100415.16
2023-02-06T11:28:59.762Z,100409.94
2023-02-06T11:31:45.910Z,100411.72
2023-02-06T11:34:38.991Z,100421.22
2023-02-06T11:37:32.435Z,100408.25
2023-02-06T11:40:17.324Z,100409.09
2023-02-06T11:42:48.300Z,100412.06
2023-02-06T11:45:30.773Z,100402.44
2023-02-06T11:47:58.990Z,100405.44
2023-02-06T11:50:34.125Z,100398.66
2023-02-06T11:53:15.033Z,100396.06
2023-02-06T11:55:42.769Z,100394.31
2023-02-06T11:58:09.394Z,100395.19
2023-02-06T12:00:37.098Z,100377.81
2023-02-06T12:03:04.648Z,100382.09
2023-02-06T12:05:38.031Z,100383.75
2023-02-06T12:08:12.936Z,100382.09
2023-02-06T12:11:02.377Z,100376.88
2023-02-06T12:13:33.899Z,100376.88
2023-02-06T12:16:04.371Z,100381.88
2023-02-06T12:18:40.280Z,100387.91
2023-02-06T12:21:43.092Z,100393.28
2023-02-06T12:24:44.343Z,100380.34
2023-02-06T12:27:34.076Z,100374.31
2023-02-06T12:30:08.796Z,100356.91
2023-02-06T12:32:43.022Z,100348.16
2023-02-06T12:35:24.325Z,100349.94
2023-02-06T12:38:02.062Z,100345.59
2023-02-06T12:40:47.136Z,100357.63
2023-02-06T12:43:15.876Z,100348.97
2023-02-06T12:45:55.637Z,100333.31
2023-02-06T12:48:29.235Z,100349.06
2023-02-06T12:51:10.597Z,100337.78
2023-02-06T12:53:42.787Z,100338.53
2023-02-06T12:56:42.400Z,100319.97
2023-02-06T12:59:30.688Z,100331.25
2023-02-06T13:02:22.528Z,100333.19
2023-02-06T13:04:50.679Z,100334.28
2023-02-06T13:07:21.607Z,100339.50
2023-02-06T13:10:08.406Z,100336.88
2023-02-06T13:12:35.217Z,100339.44
2023-02-06T13:15:06.094Z,100328.88
2023-02-06T13:17:45.134Z,100335.75
2023-02-06T13:20:18.617Z,100326.75
2023-02-06T13:22:51.808Z,100333.38
2023-02-06T13:25:30.726Z,100335.25
2023-02-06T13:28:21.401Z,100340.41
2023-02-06T13:31:22.469Z,100330.06
2023-02-06T13:33:58.943Z,100327.13
2023-02-06T13:36:40.784Z,100329.72
2023-02-06T13:39:33.903Z,100332.44
2023-02-06T13:42:22.549Z,100331.38
2023-02-06T13:44:50.740Z,100333.69
2023-02-06T13:47:20.387Z,100333.47
2023-02-06T13:49:52.906Z,100326.38
2023-02-06T13:52:39.650Z,100317.69
2023-02-06T13:55:18.570Z,100316.13
2023-02-06T13:58:13.308Z,100318.56
2023-02-06T14:00:44.032Z,100306.06
2023-02-06T14:03:23.551Z,100317.72
2023-02-06T14:06:35.353Z,100308.25
2023-02-06T14:09:51.547Z,100301.44
2023-02-06T14:12:36.607Z,100301.69
2023-02-06T14:15:36.616Z,100296.41
2023-02-06T14:18:23.602Z,100295.53
2023-02-06T14:21:03.042Z,100302.50
2023-02-06T14:23:39.388Z,100300.91
2023-02-06T14:26:38.092Z,100299.34
2023-02-06T14:29:36.608Z,100302.81
2023-02-06T14:32:12.121Z,100313.38
2023-02-06T14:35:16.725Z,100305.47
2023-02-06T14:37:46.792Z,100301.97
2023-02-06T14:40:36.544Z,100299.44
2023-02-06T14:43:07.650Z,100298.59
2023-02-06T14:45:41.968Z,100295.97
2023-02-06T14:48:23.155Z,100309.91
2023-02-06T14:50:55.532Z,100308.19
2023-02-06T14:53:34.563Z,100305.56
2023-02-06T14:56:16.932Z,100313.44
2023-02-06T14:58:46.421Z,100292.50
2023-02-06T15:01:23.319Z,100308.16
2023-02-06T15:03:52.693Z,100317.72
2023-02-06T15:06:33.406Z,100310.78
2023-02-06T15:09:01.173Z,100306.44
2023-02-06T15:11:33.133Z,100322.97
2023-02-06T15:14:02.547Z,100317.75
2023-02-06T15:16:30.577Z,100313.28
2023-02-06T15:19:18.435Z,100335.81
2023-02-06T15:21:45.292Z,100333.19
2023-02-06T15:24:48.912Z,100333.22
2023-02-06T15:27:32.057Z,100305.38
2023-02-06T15:29:59.871Z,100328.91
2023-02-06T15:32:34.061Z,100327.94
2023-02-06T15:35:02.597Z,100327.91
2023-02-06T15:37:36.233Z,100321.81
2023-02-06T15:40:19.292Z,100319.19
2023-02-06T15:42:48.577Z,100318.19
2023-02-06T15:45:27.312Z,100325.16
2023-02-06T15:47:55.927Z,100322.53
2023-02-06T15:50:27.630Z,100337.22
2023-02-06T15:52:56.008Z,100318.94
2023-02-06T15:55:35.882Z,100331.97
2023-02-06T15:58:05.123Z,100330.19
2023-02-06T16:00:37.070Z,100336.25
2023-02-06T16:03:16.574Z,100321.31
2023-02-06T16:05:43.774Z,100333.28
2023-02-06T16:08:20.660Z,100335.91
2023-02-06T16:11:01.220Z,100339.34
2023-02-06T16:13:30.401Z,100348.81
2023-02-06T16:16:09.086Z,100341.72
2023-02-06T16:18:37.930Z,100344.25
2023-02-06T16:21:16.888Z,100354.59
2023-02-06T16:23:48.383Z,100358.00
2023-02-06T16:26:15.070Z,100364.06
2023-02-06T16:29:02.436Z,100368.41
2023-02-06T16:31:34.588Z,100360.56
2023-02-06T16:34:03.465Z,100366.63
2023-02-06T16:36:33.557Z,100374.41
2023-02-06T16:39:04.507Z,100377.84
2023-02-06T16:41:40.693Z,100379.53
2023-02-06T16:44:13.186Z,100382.94
2023-02-06T16:46:40.328Z,100378.53
2023-02-06T16:49:20.218Z,100377.56
2023-02-06T16:51:49.123Z,100381.03
2023-02-06T16:54:28.637Z,100385.34
2023-02-06T16:56:58.858Z,100394.00
2023-02-06T16:59:26.368Z,100402.59
2023-02-06T17:01:55.462Z,100405.97
2023-02-06T17:04:24.631Z,100416.28
2023-02-06T17:06:52.570Z,100418.81
2023-02-06T17:09:19.696Z,100418.66
2023-02-06T17:11:46.973Z,100393.25
2023-02-06T17:14:14.169Z,100426.28
2023-02-06T17:16:41.778Z,100438.41
2023-02-06T17:19:12.916Z,100436.44
2023-02-06T17:21:40.514Z,100440.63
2023-02-06T17:24:07.052Z,100445.56
2023-02-06T17:26:33.792Z,100446.31
2023-02-06T17:29:00.587Z,100452.31
2023-02-06T17:31:27.444Z,100459.31
2023-02-06T17:33:54.283Z,100463.56
2023-02-06T17:36:29.186Z,100465.97
2023-02-06T17:39:00.234Z,100483.19
2023-02-06T17:41:27.620Z,100481.38
2023-02-06T17:43:54.356Z,100483.91
2023-02-06T17:46:21.186Z,100480.28
2023-02-06T17:48:47.945Z,100480.25
2023-02-06T17:51:14.747Z,100475.06
2023-02-06T17:53:41.443Z,100482.75
2023-02-06T17:56:12.896Z,100480.94
2023-02-06T17:58:40.693Z,100487.75
2023-02-06T18:01:27.880Z,100489.44
2023-02-06T18:03:54.935Z,100494.56
2023-02-06T18:06:21.955Z,100496.19
2023-02-06T18:08:48.859Z,100497.00
2023-02-06T18:11:20.691Z,100498.72
2023-02-06T18:13:48.722Z,100499.47
2023-02-06T18:16:18.544Z,100493.38
2023-02-06T18:18:45.720Z,100498.50
2023-02-06T18:21:12.386Z,100505.41
2023-02-06T18:23:39.483Z,100503.56
2023-02-06T18:26:09.317Z,100506.84
2023-02-06T18:28:37.720Z,100504.81
2023-02-06T18:31:05.693Z,100505.44
2023-02-06T18:33:35.203Z,100522.75
2023-02-06T18:36:06.261Z,100508.84
2023-02-06T18:38:33.170Z,100520.25
2023-02-06T18:41:06.518Z,100519.38
2023-02-06T18:43:33.369Z,100515.72
2023-02-06T18:46:07.025Z,100520.72
2023-02-06T18:48:33.807Z,100517.28
2023-02-06T18:51:00.937Z,100517.22
2023-02-06T18:53:27.927Z,100522.41
2023-02-06T18:55:58.896Z,100523.19
2023-02-06T18:58:25.639Z,100527.44
2023-02-06T19:00:52.422Z,100528.38
2023-02-06T19:03:19.234Z,100522.34
2023-02-06T19:05:46.083Z,100532.63
2023-02-06T19:08:12.790Z,100529.97
2023-02-06T19:10:40.317Z,100538.47
2023-02-06T19:13:07.009Z,100536.75
2023-02-06T19:15:35.896Z,100537.53
2023-02-06T19:18:04.510Z,100534.81
2023-02-06T19:20:31.590Z,100543.41
2023-02-06T19:22:58.548Z,100535.41
2023-02-06T19:25:25.442Z,100552.59
2023-02-06T19:27:52.245Z,100561.16
2023-02-06T19:30:18.978Z,100561.88
2023-02-06T19:32:45.879Z,100555.63
2023-02-06T19:35:12.633Z,100562.50
2023-02-06T19:37:40.137Z,100564.97
2023-02-06T19:40:07.261Z,100561.38
2023-02-06T19:42:33.923Z,100564.75
2023-02-06T19:45:00.668Z,100572.53
2023-02-06T19:47:27.451Z,100578.56
2023-02-06T19:49:54.169Z,100567.34
2023-02-06T19:52:21.151Z,100566.47
2023-02-06T19:54:48.011Z,100565.41
2023-02-06T19:57:16.002Z,100567.06
2023-02-06T19:59:42.994Z,100576.47
2023-02-06T20:02:12.771Z,100577.06
2023-02-06T20:04:39.914Z,100571.78
2023-02-06T20:07:06.747Z,100569.13
2023-02-06T20:09:33.889Z,100574.19
2023-02-06T20:12:00.622Z,100580.09
2023-02-06T20:14:27.959Z,100584.25
2023-02-06T20:16:55.465Z,100585.91
2023-02-06T20:19:26.894Z,100588.53
2023-02-06T20:21:57.241Z,100584.16
2023-02-06T20:24:26.853Z,100595.19
2023-02-06T20:26:56.637Z,100590.75
2023-02-06T20:29:34.248Z,100585.75
2023-02-06T20:32:01.394Z,100595.16
2023-02-06T20:34:28.683Z,100597.00
2023-02-06T20:36:56.275Z,100593.56
2023-02-06T20:39:23.610Z,100595.19
2023-02-06T20:41:50.914Z,100602.00
2023-02-06T20:44:18.054Z,100597.66
2023-02-06T20:46:45.266Z,100599.53
2023-02-06T20:49:32.141Z,100598.81
2023-02-06T20:51:58.866Z,100600.44
2023-02-06T20:54:25.995Z,100605.38
2023-02-06T20:56:53.229Z,100600.91
2023-02-06T20:59:20.554Z,100599.88
2023-02-06T21:01:47.717Z,100603.16
2023-02-06T21:04:15.792Z,100605.78
2023-02-06T21:06:43.211Z,100612.75
2023-02-06T21:09:11.024Z,100611.88
2023-02-06T21:11:47.468Z,100621.34
2023-02-06T21:14:15.621Z,100623.06
2023-02-06T21:16:43.801Z,100617.66
2023-02-06T21:19:12.146Z,100626.09
2023-02-06T21:21:39.566Z,100621.59
2023-02-06T21:24:06.873Z,100619.59
2023-02-06T21:26:33.866Z,100610.56
2023-02-06T21:29:02.547Z,100620.91
2023-02-06T21:31:38.154Z,100613.91
2023-02-06T21:34:09.760Z,100620.09
2023-02-06T21:36:38.277Z,100615.81
2023-02-06T21:39:05.538Z,100616.88
2023-02-06T21:41:32.634Z,100626.34
2023-02-06T21:43:59.381Z,100627.88
2023-02-06T21:46:26.339Z,100628.63
2023-02-06T21:48:54.051Z,100618.13
2023-02-06T21:51:21.476Z,100628.44
2023-02-06T21:53:48.240Z,100630.75
2023-02-06T21:56:18.190Z,100632.19
2023-02-06T21:58:45.285Z,100633.06
2023-02-06T22:01:25.401Z,100640.72
2023-02-06T22:03:52.768Z,100632.81
2023-02-06T22:06:20.217Z,100645.59
2023-02-06T22:08:51.782Z,100642.75
2023-02-06T22:11:24.719Z,100629.03
2023-02-06T22:13:52.706Z,100633.00
2023-02-06T22:16:21.964Z,100622.75
2023-02-06T22:18:49.494Z,100621.81
2023-02-06T22:21:18.869Z,100635.78
2023-02-06T22:23:47.047Z,100629.75
2023-02-06T22:26:20.773Z,100635.78
2023-02-06T22:28:47.758Z,100633.09
2023-02-06T22:31:21.760Z,100639.78
2023-02-06T22:33:50.156Z,100646.78
2023-02-06T22:36:20.537Z,100643.16
2023-02-06T22:38:52.280Z,100646.69
2023-02-06T22:41:19.231Z,100650.66
2023-02-06T22:43:48.103Z,100644.38
2023-02-06T22:46:21.348Z,100661.69
2023-02-06T22:48:48.270Z,100662.25
2023-02-06T22:51:15.367Z,100662.72
2023-02-06T22:53:42.500Z,100647.63
2023-02-06T22:56:36.886Z,100645.06
2023-02-06T22:59:24.069Z,100652.94
2023-02-06T23:01:57.726Z,100655.50
2023-02-06T23:04:26.033Z,100656.25
2023-02-06T23:06:52.926Z,100653.19
2023-02-06T23:09:23.104Z,100653.97
2023-02-06T23:11:50.581Z,100658.91
2023-02-06T23:14:18.705Z,100662.16
2023-02-06T23:16:46.253Z,100656.06
2023-02-06T23:19:14.552Z,100658.81
2023-02-06T23:21:42.881Z,100667.31
2023-02-06T23:24:10.959Z,100654.25
2023-02-06T23:26:38.175Z,100659.56
2023-02-06T23:29:08.510Z,100657.72
2023-02-06T23:31:35.570Z,100655.66
2023-02-06T23:34:02.473Z,100652.19
2023-02-06T23:36:29.676Z,100655.41
2023-02-06T23:38:56.661Z,100659.66
2023-02-06T23:41:26.152Z,100655.50
2023-02-06T23:43:56.258Z,100654.59
2023-02-06T23:46:23.776Z,100652.00
2023-02-06T23:48:51.253Z,100650.94
2023-02-06T23:51:18.730Z,100649.06
2023-02-06T23:53:45.440Z,100646.38
2023-02-06T23:56:17.080Z,100663.53
2023-02-06T23:58:44.041Z,100648.59
